createdAt,value
2022-11-15T00:02:02.317Z,38.40
2022-11-15T00:34:00.589Z,38.60
2022-11-15T00:37:24.621Z,38.60
2022-11-15T01:45:40.919Z,38.70
2022-11-15T01:49:11.012Z,38.80
2022-11-15T01:52:40.973Z,38.80
2022-11-15T01:56:06.283Z,38.70
2022-11-15T01:59:41.029Z,38.80
2022-11-15T02:03:23.060Z,38.80
2022-11-15T02:06:47.163Z,38.90
2022-11-15T02:10:11.130Z,38.80
2022-11-15T02:13:41.212Z,38.80
2022-11-15T02:17:06.460Z,38.80
2022-11-15T02:21:06.491Z,38.90
2022-11-15T02:24:59.261Z,38.90
2022-11-15T02:28:47.298Z,38.90
2022-11-15T02:32:29.326Z,38.90
2022-11-15T02:36:02.067Z,39.00
2022-11-15T02:39:35.390Z,39.00
2022-11-15T02:43:08.434Z,39.00
2022-11-15T02:46:54.737Z,39.00
2022-11-15T02:50:29.474Z,39.00
2022-11-15T02:53:59.503Z,39.00
2022-11-15T02:57:29.544Z,39.00
2022-11-15T03:00:59.621Z,39.00
2022-11-15T03:04:41.643Z,39.10
2022-11-15T03:08:06.921Z,39.00
2022-11-15T03:11:41.676Z,39.70
2022-11-15T03:15:06.984Z,39.10
2022-11-15T03:18:35.713Z,39.00
2022-11-15T03:22:07.038Z,39.00
2022-11-15T03:25:41.785Z,39.00
2022-11-15T03:29:07.092Z,39.10
2022-11-15T03:32:41.846Z,39.10
2022-11-15T03:36:07.153Z,39.60
2022-11-15T03:39:41.902Z,39.00
2022-11-15T03:43:23.933Z,39.10
2022-11-15T03:46:59.961Z,39.10
2022-11-15T03:50:29.993Z,39.10
2022-11-15T03:54:00.025Z,39.10
2022-11-15T03:57:18.048Z,39.10
2022-11-15T04:00:54.120Z,39.10
2022-11-15T04:04:18.124Z,39.20
2022-11-15T04:07:48.155Z,39.10
2022-11-15T04:11:13.448Z,38.90
2022-11-15T04:14:42.213Z,38.60
2022-11-15T04:22:00.270Z,38.00
2022-11-15T04:25:26.249Z,37.70
2022-11-15T05:17:20.994Z,36.80
2022-11-15T05:28:18.840Z,36.60
2022-11-15T05:31:45.782Z,36.50
2022-11-15T05:35:00.940Z,36.50
2022-11-15T05:38:22.545Z,36.50
2022-11-15T05:41:45.844Z,36.50
2022-11-15T06:01:51.125Z,36.70
2022-11-15T06:04:42.671Z,36.60
2022-11-15T06:16:15.861Z,36.40
2022-11-15T06:19:38.085Z,36.40
2022-11-15T06:22:55.522Z,36.40
2022-11-15T06:26:10.729Z,36.30
2022-11-15T06:29:12.692Z,36.30
2022-11-15T06:32:37.348Z,36.20
2022-11-15T06:35:54.529Z,36.80
2022-11-15T06:39:01.410Z,36.30
2022-11-15T06:42:25.439Z,36.20
2022-11-15T06:45:37.473Z,36.30
2022-11-15T06:48:35.160Z,36.20
2022-11-15T06:51:24.693Z,36.30
2022-11-15T06:54:33.471Z,36.20
2022-11-15T06:57:55.589Z,36.00
2022-11-15T07:01:00.220Z,36.00
2022-11-15T07:04:00.235Z,36.00
2022-11-15T07:07:01.785Z,36.00
2022-11-15T07:10:31.702Z,36.10
2022-11-15T07:13:16.383Z,36.00
2022-11-15T07:16:18.431Z,36.00
2022-11-15T07:19:29.332Z,36.00
2022-11-15T07:22:31.819Z,36.10
2022-11-15T07:25:31.851Z,36.10
2022-11-15T07:28:34.520Z,36.10
2022-11-15T07:31:47.875Z,36.10
2022-11-15T07:34:30.161Z,36.20
2022-11-15T07:37:13.989Z,36.10
2022-11-15T07:40:33.111Z,36.10
2022-11-15T07:43:17.133Z,36.20
2022-11-15T07:50:22.700Z,36.20
2022-11-15T07:53:21.132Z,36.20
2022-11-15T07:56:20.228Z,36.00
2022-11-15T07:59:39.207Z,36.00
2022-11-15T08:02:30.292Z,36.00
2022-11-15T08:05:56.226Z,36.00
2022-11-15T08:09:14.260Z,36.00
2022-11-15T08:12:20.307Z,35.90
2022-11-15T08:15:04.961Z,35.80
2022-11-15T08:17:52.154Z,35.70
2022-11-15T08:20:41.641Z,35.80
2022-11-15T08:23:48.439Z,35.70
2022-11-15T08:26:35.073Z,35.70
2022-11-15T08:29:23.110Z,35.70
2022-11-15T08:32:28.749Z,35.80
2022-11-15T08:35:27.666Z,35.70
2022-11-15T08:38:29.365Z,35.90
2022-11-15T08:41:46.031Z,35.90
2022-11-15T08:44:26.561Z,35.90
2022-11-15T08:47:11.278Z,36.00
2022-11-15T08:50:21.773Z,36.00
2022-11-15T08:53:22.204Z,35.90
2022-11-15T08:56:47.368Z,35.90
2022-11-15T08:59:50.393Z,36.00
2022-11-15T09:03:09.083Z,35.90
2022-11-15T09:05:58.293Z,35.70
2022-11-15T09:08:47.403Z,35.70
2022-11-15T09:11:42.486Z,35.70
2022-11-15T09:14:36.511Z,35.70
2022-11-15T09:17:30.537Z,35.60
2022-11-15T09:20:19.255Z,35.60
2022-11-15T09:23:07.929Z,35.60
2022-11-15T09:26:29.812Z,35.50
2022-11-15T09:29:10.833Z,35.50
2022-11-15T09:32:08.015Z,35.50
2022-11-15T09:35:08.044Z,36.00
2022-11-15T09:38:13.305Z,35.40
2022-11-15T09:41:48.193Z,35.40
2022-11-15T09:45:23.942Z,35.20
2022-11-15T09:49:21.959Z,35.10
2022-11-15T09:52:32.196Z,35.20
2022-11-15T09:55:46.782Z,35.20
2022-11-15T09:59:20.267Z,35.20
2022-11-15T10:03:11.072Z,35.10
2022-11-15T10:06:44.330Z,35.10
2022-11-15T10:10:17.586Z,35.10
2022-11-15T10:16:55.348Z,35.10
2022-11-15T10:19:54.635Z,35.00
2022-11-15T10:23:27.886Z,35.10
2022-11-15T10:26:09.638Z,35.10
2022-11-15T10:28:55.715Z,35.20
2022-11-15T10:31:50.641Z,35.10
2022-11-15T10:34:56.225Z,35.10
2022-11-15T10:37:52.893Z,35.10
2022-11-15T10:42:21.521Z,35.20
2022-11-15T10:49:42.494Z,35.10
2022-11-15T10:56:32.096Z,35.30
2022-11-15T11:00:13.204Z,35.20
2022-11-15T11:03:56.486Z,35.20
2022-11-15T11:07:06.888Z,35.20
2022-11-15T11:10:22.788Z,35.50
2022-11-15T11:14:12.242Z,35.40
2022-11-15T11:17:20.733Z,35.50
2022-11-15T11:20:54.294Z,35.60
2022-11-15T11:24:32.688Z,35.60
2022-11-15T11:27:38.408Z,35.40
2022-11-15T11:30:39.464Z,35.50
2022-11-15T11:33:44.784Z,35.50
2022-11-15T11:37:00.430Z,35.80
2022-11-15T11:40:10.819Z,35.40
2022-11-15T11:43:48.489Z,35.30
2022-11-15T11:46:55.744Z,35.30
2022-11-15T11:49:51.484Z,35.50
2022-11-15T11:52:50.947Z,35.40
2022-11-15T11:55:55.860Z,35.40
2022-11-15T12:03:18.724Z,35.50
2022-11-15T12:06:12.365Z,35.50
2022-11-15T12:09:18.707Z,35.50
2022-11-15T12:12:26.248Z,35.50
2022-11-15T12:15:29.087Z,35.50
2022-11-15T12:18:36.488Z,35.50
2022-11-15T12:21:42.824Z,35.50
2022-11-15T12:24:36.546Z,35.50
2022-11-15T12:28:06.901Z,35.50
2022-11-15T12:31:15.178Z,35.40
2022-11-15T12:34:28.795Z,35.50
2022-11-15T12:38:03.058Z,35.40
2022-11-15T12:41:27.400Z,35.50
2022-11-15T12:44:38.459Z,35.60
2022-11-15T12:47:36.934Z,35.70
2022-11-15T12:51:09.509Z,35.70
2022-11-15T12:54:28.481Z,35.80
2022-11-15T12:57:55.182Z,35.80
2022-11-15T13:01:39.708Z,35.80
2022-11-15T13:05:03.888Z,36.10
2022-11-15T13:08:12.367Z,36.00
2022-11-15T13:16:37.365Z,36.10
2022-11-15T13:19:44.315Z,36.00
2022-11-15T13:22:39.808Z,36.00
2022-11-15T13:25:52.486Z,36.10
2022-11-15T13:28:51.988Z,36.10
2022-11-15T13:31:51.195Z,36.10
2022-11-15T13:35:06.723Z,36.20
2022-11-15T14:06:55.814Z,36.30
2022-11-15T14:10:13.839Z,36.50
2022-11-15T14:13:14.870Z,36.40
2022-11-15T14:16:01.897Z,36.50
2022-11-15T14:19:16.339Z,36.50
2022-11-15T14:22:33.245Z,36.40
2022-11-15T14:26:02.003Z,36.40
2022-11-15T14:29:20.036Z,36.40
2022-11-15T14:32:28.035Z,36.40
2022-11-15T14:35:40.494Z,36.30
2022-11-15T14:38:56.124Z,36.30
2022-11-15T14:41:51.491Z,36.30
2022-11-15T14:44:46.588Z,36.40
2022-11-15T14:47:43.141Z,36.40
2022-11-15T14:54:05.709Z,36.50
2022-11-15T14:56:45.660Z,36.50
2022-11-15T15:02:42.325Z,36.50
2022-11-15T15:06:35.154Z,36.50
2022-11-15T15:10:42.559Z,36.50
2022-11-15T15:13:33.611Z,36.50
2022-11-15T15:16:58.059Z,36.50
2022-11-15T15:24:22.994Z,36.50
2022-11-15T15:30:52.208Z,36.50
2022-11-15T15:34:05.699Z,36.50
2022-11-15T15:37:45.674Z,36.40
2022-11-15T15:40:55.954Z,36.40
2022-11-15T15:44:39.653Z,36.40
2022-11-15T15:48:16.761Z,37.10
2022-11-15T16:09:08.214Z,36.70
2022-11-15T16:28:49.615Z,36.80
2022-11-15T16:36:38.276Z,36.70
2022-11-15T17:30:07.787Z,36.70
2022-11-15T17:33:55.311Z,36.70
2022-11-15T17:37:24.294Z,36.60
2022-11-15T17:56:56.101Z,36.80
2022-11-15T18:16:44.262Z,36.60
2022-11-15T18:28:02.368Z,36.50
2022-11-15T18:31:47.675Z,36.50
2022-11-15T18:54:20.600Z,36.40
2022-11-15T19:25:56.924Z,36.70
2022-11-15T19:29:50.945Z,36.70
2022-11-15T19:33:25.104Z,36.80
2022-11-15T19:36:52.770Z,36.80
2022-11-15T19:40:21.039Z,36.90
2022-11-15T19:43:51.072Z,37.00
2022-11-15T19:47:33.105Z,37.00
2022-11-15T19:51:03.142Z,37.00
2022-11-15T19:54:33.174Z,37.10
2022-11-15T19:58:03.200Z,37.10
2022-11-15T20:01:33.311Z,37.10
2022-11-15T20:05:11.007Z,37.20
2022-11-15T20:08:45.300Z,37.20
2022-11-15T20:12:09.334Z,37.20
2022-11-15T20:15:39.359Z,37.20
2022-11-15T20:19:03.390Z,37.20
2022-11-15T20:22:20.443Z,37.10
2022-11-15T20:25:33.444Z,37.10
2022-11-15T20:29:03.505Z,37.20
2022-11-15T20:32:27.505Z,37.20
2022-11-15T20:35:53.265Z,37.20
2022-11-15T20:39:30.201Z,37.20
2022-11-15T20:42:57.604Z,37.20
2022-11-15T20:46:27.643Z,37.30
2022-11-15T20:49:53.383Z,37.40
2022-11-15T20:53:21.702Z,37.30
2022-11-15T20:56:53.446Z,37.30
2022-11-15T21:00:15.772Z,37.40
2022-11-15T21:03:45.802Z,37.40
2022-11-15T21:07:15.857Z,37.40
2022-11-15T21:10:45.865Z,37.40
2022-11-15T21:14:15.897Z,37.50
2022-11-15T21:17:45.924Z,37.40
2022-11-15T21:21:09.956Z,37.50
2022-11-15T21:33:07.137Z,37.50
2022-11-15T22:38:06.436Z,37.80
